Time;durP1;ratioP1;P1;durP2;ratioP2;P2;SDS_P1;SDS_P2;PMS_P1;PMS_P2;Temp;Humidity;BMP_temperature;BMP_pressure;BME280_temperature;BME280_humidity;BME280_pressure;Samples;Min_cycle;Max_cycle;Signal;HPM_P1;HPM_P2
2022/07/31 00:00:57;;;;;;;8.67;6.17;;;16.20;99.90;;;;;;2586212;54;21229;31
2022/07/31 00:03:30;;;;;;;7.75;6.35;;;16.20;99.90;;;;;;2585464;54;20109;31
2022/07/31 00:06:04;;;;;;;6.90;5.65;;;16.10;99.90;;;;;;2585489;54;20746;31
2022/07/31 00:08:40;;;;;;;6.50;5.85;;;16.10;99.90;;;;;;2585318;54;20890;31
2022/07/31 00:11:20;;;;;;;7.68;5.53;;;16.20;99.90;;;;;;2585164;54;20023;31
2022/07/31 00:13:53;;;;;;;7.13;6.32;;;16.10;99.90;;;;;;2585161;54;20089;31
2022/07/31 00:16:29;;;;;;;6.22;5.45;;;16.20;99.90;;;;;;2585413;54;21174;31
2022/07/31 00:19:04;;;;;;;6.70;5.25;;;16.20;99.90;;;;;;2586040;54;20840;31
2022/07/31 00:21:38;;;;;;;7.50;4.70;;;16.10;99.90;;;;;;2585983;54;20052;31
2022/07/31 00:24:13;;;;;;;5.80;4.40;;;16.20;99.90;;;;;;2604568;47;20085;31
2022/07/31 00:26:52;;;;;;;6.55;4.80;;;16.20;99.90;;;;;;2586152;54;20050;31
2022/07/31 00:29:29;;;;;;;6.75;5.47;;;16.10;99.90;;;;;;2586798;54;20027;31
2022/07/31 00:32:05;;;;;;;5.70;4.80;;;16.30;99.90;;;;;;2586995;54;20901;31
2022/07/31 00:34:41;;;;;;;6.05;5.45;;;16.20;99.90;;;;;;2586294;54;20861;31
2022/07/31 00:37:14;;;;;;;;;;;16.20;99.90;;;;;;2587006;54;20081;31
2022/07/31 00:39:49;;;;;;;6.97;4.50;;;16.20;99.90;;;;;;2585790;54;19997;31
2022/07/31 00:42:27;;;;;;;6.70;5.30;;;16.20;99.90;;;;;;2585810;54;20382;31
2022/07/31 00:45:02;;;;;;;5.57;4.72;;;16.20;99.90;;;;;;2585961;54;20077;31
2022/07/31 00:47:36;;;;;;;7.07;5.45;;;16.20;99.90;;;;;;2586659;54;20089;31
2022/07/31 00:50:12;;;;;;;4.80;4.40;;;16.10;99.90;;;;;;2605331;46;20031;31
2022/07/31 00:52:52;;;;;;;7.80;5.00;;;16.10;99.90;;;;;;2586700;54;21070;31
2022/07/31 00:55:28;;;;;;;4.90;4.00;;;16.10;99.90;;;;;;2585840;54;20516;31
2022/07/31 00:58:03;;;;;;;;;;;16.10;99.90;;;;;;2586037;54;20919;31
2022/07/31 01:00:37;;;;;;;6.15;4.80;;;16.10;99.90;;;;;;2585833;54;19961;31
2022/07/31 01:03:11;;;;;;;6.70;4.90;;;16.10;99.90;;;;;;2586643;54;20125;31
2022/07/31 01:05:46;;;;;;;6.00;5.20;;;16.10;99.90;;;;;;2587003;54;20892;31
2022/07/31 01:08:21;;;;;;;;;;;16.10;99.90;;;;;;2586833;54;19935;31
2022/07/31 01:10:55;;;;;;;8.20;5.50;;;16.10;99.90;;;;;;2684241;39;20468;31
2022/07/31 01:13:37;;;;;;;6.45;5.50;;;16.10;99.90;;;;;;2586558;54;20839;31
2022/07/31 01:16:11;;;;;;;7.63;5.20;;;16.10;99.90;;;;;;2586604;54;20046;31
2022/07/31 01:18:45;;;;;;;5.57;5.03;;;16.10;99.90;;;;;;2586605;54;20133;31
2022/07/31 01:21:22;;;;;;;6.10;5.00;;;16.10;99.90;;;;;;2605215;46;20108;31
2022/07/31 01:24:20;;;;;;;6.93;4.77;;;16.10;99.90;;;;;;2586789;54;20889;31
2022/07/31 01:27:10;;;;;;;4.45;3.45;;;16.10;99.90;;;;;;2586555;54;20022;31
2022/07/31 01:29:48;;;;;;;5.43;4.00;;;16.20;99.90;;;;;;2594578;46;20050;31
2022/07/31 01:32:26;;;;;;;8.25;4.75;;;16.20;99.90;;;;;;2586606;54;20046;31
2022/07/31 01:35:06;;;;;;;6.90;5.20;;;16.20;99.90;;;;;;2586703;54;20886;31
2022/07/31 01:37:41;;;;;;;6.15;5.20;;;16.20;99.90;;;;;;2585619;54;20022;31
2022/07/31 01:40:17;;;;;;;5.60;5.03;;;16.20;99.90;;;;;;2602215;46;20830;31
2022/07/31 01:42:53;;;;;;;5.88;5.28;;;16.20;99.90;;;;;;2586507;54;20749;31
2022/07/31 01:45:29;;;;;;;5.90;4.70;;;16.20;99.90;;;;;;2586272;47;20022;31
2022/07/31 01:48:03;;;;;;;7.60;5.20;;;16.10;99.90;;;;;;2586699;54;20863;31
2022/07/31 01:50:46;;;;;;;7.15;4.75;;;16.20;99.90;;;;;;2586367;54;20026;31
2022/07/31 01:53:22;;;;;;;9.32;5.22;;;16.10;99.90;;;;;;2605195;46;20756;31
2022/07/31 01:55:59;;;;;;;7.90;4.80;;;16.20;99.90;;;;;;2586769;54;20871;31
2022/07/31 01:58:43;;;;;;;5.68;4.90;;;16.10;99.90;;;;;;2605090;46;20062;31
2022/07/31 02:01:35;;;;;;;5.80;5.20;;;16.10;99.90;;;;;;2586474;54;20057;31
2022/07/31 02:04:12;;;;;;;7.20;5.40;;;16.10;99.90;;;;;;2585514;54;20034;31
2022/07/31 02:06:49;;;;;;;5.93;4.93;;;16.10;99.90;;;;;;2585518;54;20133;31
2022/07/31 02:09:23;;;;;;;6.20;5.18;;;16.10;99.90;;;;;;2585376;54;20808;31
2022/07/31 02:11:57;;;;;;;5.85;5.25;;;16.10;99.90;;;;;;2586517;54;20089;31
2022/07/31 02:14:33;;;;;;;8.02;6.13;;;16.10;99.90;;;;;;2604857;46;20107;31
2022/07/31 02:17:10;;;;;;;7.70;5.50;;;16.10;99.90;;;;;;2586503;54;20883;31
2022/07/31 02:20:04;;;;;;;5.97;5.43;;;16.10;99.90;;;;;;2586619;54;20055;31
2022/07/31 02:22:38;;;;;;;7.80;5.60;;;16.10;99.90;;;;;;2604961;46;20046;31
2022/07/31 02:25:14;;;;;;;10.45;6.40;;;16.20;99.90;;;;;;2586632;54;20946;31
2022/07/31 02:27:50;;;;;;;8.75;5.60;;;16.10;99.90;;;;;;2586664;54;20425;31
2022/07/31 02:30:34;;;;;;;6.15;5.30;;;16.00;99.90;;;;;;2586404;54;20026;31
2022/07/31 02:33:20;;;;;;;5.50;4.68;;;16.00;99.90;;;;;;2586483;54;20049;31
2022/07/31 02:35:58;;;;;;;5.78;5.10;;;16.10;99.90;;;;;;2585365;54;20858;31
2022/07/31 02:38:35;;;;;;;6.75;5.25;;;16.10;99.90;;;;;;2605235;46;20767;31
2022/07/31 02:41:13;;;;;;;7.55;5.72;;;16.10;99.90;;;;;;2604976;46;20875;31
2022/07/31 02:43:50;;;;;;;7.72;5.10;;;16.00;99.90;;;;;;2586451;54;20046;31
2022/07/31 02:46:26;;;;;;;7.95;6.05;;;16.10;99.90;;;;;;2586386;54;20118;31
2022/07/31 02:49:04;;;;;;;9.20;5.32;;;16.00;99.90;;;;;;2586316;54;20030;31
2022/07/31 02:51:43;;;;;;;6.07;5.47;;;16.10;99.90;;;;;;2586066;54;20044;31
2022/07/31 02:54:17;;;;;;;8.35;5.95;;;16.00;99.90;;;;;;2604473;46;21111;31
2022/07/31 02:56:51;;;;;;;7.47;6.75;;;16.00;99.90;;;;;;2586240;54;20030;31
2022/07/31 02:59:25;;;;;;;10.77;6.83;;;16.00;99.90;;;;;;2586527;54;20031;31
2022/07/31 03:02:07;;;;;;;7.22;6.53;;;16.00;99.90;;;;;;2586293;54;20029;31
2022/07/31 03:04:46;;;;;;;7.70;7.00;;;16.00;99.90;;;;;;2586328;54;20742;31
2022/07/31 03:07:23;;;;;;;8.63;7.18;;;16.00;99.90;;;;;;2586298;54;20026;31
2022/07/31 03:09:58;;;;;;;10.47;7.60;;;16.00;99.90;;;;;;2585304;54;20884;31
2022/07/31 03:12:49;;;;;;;7.90;6.50;;;16.00;99.90;;;;;;2585517;54;20262;31
2022/07/31 03:15:23;;;;;;;8.00;6.67;;;16.00;99.90;;;;;;2585522;54;20057;31
2022/07/31 03:17:56;;;;;;;8.35;7.47;;;16.00;99.90;;;;;;2585481;54;20913;31
2022/07/31 03:20:44;;;;;;;8.45;7.28;;;15.90;99.90;;;;;;2586344;54;20860;31
2022/07/31 03:23:23;;;;;;;9.48;7.35;;;16.00;99.90;;;;;;2604283;46;20023;31
2022/07/31 03:26:08;;;;;;;9.15;7.40;;;16.00;99.90;;;;;;2586428;54;20838;31
2022/07/31 03:28:43;;;;;;;12.25;7.18;;;16.00;99.90;;;;;;2585349;54;20969;31
2022/07/31 03:31:18;;;;;;;8.75;7.85;;;16.00;99.90;;;;;;2586187;54;20856;31
2022/07/31 03:33:52;;;;;;;10.73;8.40;;;16.00;99.90;;;;;;2586121;54;20458;31
2022/07/31 03:36:28;;;;;;;9.95;8.95;;;16.10;99.90;;;;;;2586261;54;21019;31
2022/07/31 03:39:04;;;;;;;10.82;8.60;;;16.00;99.90;;;;;;2586115;54;20848;31
2022/07/31 03:41:43;;;;;;;10.50;9.30;;;16.00;99.90;;;;;;2586347;54;20838;31
2022/07/31 03:44:17;;;;;;;13.98;10.00;;;16.00;99.90;;;;;;2586279;54;20946;31
2022/07/31 03:46:55;;;;;;;10.32;9.20;;;16.00;99.90;;;;;;2604372;46;20023;31
2022/07/31 03:49:29;;;;;;;12.07;8.10;;;16.00;99.90;;;;;;2586236;54;20966;31
2022/07/31 03:52:06;;;;;;;11.30;8.65;;;16.00;99.90;;;;;;2586221;54;20034;31
2022/07/31 03:54:46;;;;;;;13.00;10.30;;;16.00;99.90;;;;;;2585211;54;20984;31
2022/07/31 03:57:24;;;;;;;10.47;8.73;;;16.00;99.90;;;;;;2604571;46;20033;31
2022/07/31 04:00:05;;;;;;;12.57;8.90;;;16.00;99.90;;;;;;2585650;54;20026;31
2022/07/31 04:02:48;;;;;;;10.70;9.57;;;16.00;99.90;;;;;;2605107;46;20358;31
2022/07/31 04:05:46;;;;;;;13.25;10.63;;;16.00;99.90;;;;;;2586782;54;20023;31
2022/07/31 04:08:20;;;;;;;13.30;10.38;;;16.00;99.90;;;;;;2586895;54;20840;31
2022/07/31 04:10:58;;;;;;;13.90;9.75;;;16.00;99.90;;;;;;2585943;54;20918;31
2022/07/31 04:13:35;;;;;;;11.45;10.35;;;16.00;99.90;;;;;;2585895;54;20089;31
2022/07/31 04:16:09;;;;;;;11.52;10.43;;;16.00;99.90;;;;;;2585946;54;20905;31
2022/07/31 04:18:44;;;;;;;15.10;9.05;;;16.10;99.90;;;;;;2586702;54;20031;31
2022/07/31 04:21:25;;;;;;;11.73;10.50;;;16.00;99.90;;;;;;2586883;54;20030;31
2022/07/31 04:24:00;;;;;;;12.20;10.65;;;16.10;99.90;;;;;;2586987;54;20037;31
2022/07/31 04:27:13;;;;;;;12.65;11.35;;;16.00;99.90;;;;;;2586733;54;21080;31
2022/07/31 04:29:51;;;;;;;12.20;10.80;;;16.10;99.90;;;;;;2605493;46;20042;31
2022/07/31 04:32:27;;;;;;;12.50;11.30;;;16.00;99.90;;;;;;2586790;54;20876;31
2022/07/31 04:35:09;;;;;;;13.45;11.70;;;16.10;99.90;;;;;;2586668;54;20317;31
2022/07/31 04:37:44;;;;;;;12.40;11.05;;;16.10;99.90;;;;;;2586706;54;20904;31
2022/07/31 04:40:20;;;;;;;12.63;11.23;;;16.10;99.90;;;;;;2605298;46;20064;31
2022/07/31 04:42:58;;;;;;;13.57;11.98;;;16.20;99.90;;;;;;2586610;54;20955;31
2022/07/31 04:45:33;;;;;;;17.95;12.15;;;16.20;99.90;;;;;;2605340;46;20108;31
2022/07/31 04:48:10;;;;;;;16.92;13.35;;;16.20;99.90;;;;;;2586789;54;20027;31
2022/07/31 04:50:48;;;;;;;16.77;11.52;;;16.20;99.90;;;;;;2605469;46;20030;31
2022/07/31 04:53:22;;;;;;;14.68;12.82;;;16.20;99.90;;;;;;2586748;54;20112;31
2022/07/31 04:58:46;;;;;;;16.33;13.53;;;16.20;99.90;;;;;;2586842;54;20128;31
2022/07/31 05:01:19;;;;;;;17.85;13.50;;;16.30;99.90;;;;;;2585876;54;20073;31
2022/07/31 05:03:55;;;;;;;17.98;14.20;;;16.20;99.90;;;;;;2604645;46;20501;31
2022/07/31 05:06:36;;;;;;;16.98;15.02;;;16.20;99.90;;;;;;2597629;46;20046;31
2022/07/31 05:09:09;;;;;;;16.52;14.80;;;16.30;99.90;;;;;;2586672;54;20085;31
2022/07/31 05:11:49;;;;;;;17.85;14.50;;;16.30;99.90;;;;;;2585590;54;21512;31
2022/07/31 05:14:32;;;;;;;20.35;15.20;;;16.30;99.90;;;;;;2585651;54;19989;31
2022/07/31 05:17:06;;;;;;;17.70;14.15;;;16.30;99.90;;;;;;2585700;54;20062;31
2022/07/31 05:20:02;;;;;;;18.95;14.15;;;16.30;99.90;;;;;;2586664;54;20801;31
2022/07/31 05:22:52;;;;;;;20.80;15.10;;;16.30;99.90;;;;;;2586870;54;20899;31
2022/07/31 05:25:45;;;;;;;18.63;14.10;;;16.30;99.90;;;;;;2586537;54;20026;31
2022/07/31 05:28:20;;;;;;;13.85;12.45;;;16.30;99.90;;;;;;2586524;54;20026;31
2022/07/31 05:31:05;;;;;;;19.23;13.00;;;16.30;99.90;;;;;;2586451;54;20031;31
2022/07/31 05:33:37;;;;;;;14.90;12.00;;;16.30;99.90;;;;;;2585691;54;20189;31
2022/07/31 05:36:11;;;;;;;13.23;11.82;;;16.30;99.90;;;;;;2586392;54;20831;31
2022/07/31 05:38:47;;;;;;;12.75;11.45;;;16.30;99.90;;;;;;2586756;54;20026;31
2022/07/31 05:41:32;;;;;;;14.45;11.60;;;16.40;99.90;;;;;;2605013;46;21421;31
2022/07/31 05:44:12;;;;;;;13.02;11.40;;;16.40;99.90;;;;;;2605287;46;20109;31
2022/07/31 05:46:50;;;;;;;11.10;10.00;;;16.40;99.90;;;;;;2586829;54;20951;31
2022/07/31 05:49:28;;;;;;;12.85;10.20;;;16.40;99.90;;;;;;2586495;54;20030;31
2022/07/31 05:52:08;;;;;;;12.07;10.13;;;16.40;99.90;;;;;;2586485;54;20759;31
2022/07/31 05:54:44;;;;;;;;;;;16.50;99.90;;;;;;2586998;54;20903;31
2022/07/31 05:57:44;;;;;;;13.52;9.45;;;16.50;99.90;;;;;;2586552;54;19943;31
2022/07/31 06:00:17;;;;;;;12.20;9.70;;;16.60;99.90;;;;;;2585572;54;20917;31
2022/07/31 06:02:50;;;;;;;9.30;8.33;;;16.50;99.90;;;;;;2585805;54;20856;31
2022/07/31 06:05:45;;;;;;;12.60;9.85;;;16.60;99.90;;;;;;2586496;54;21225;31
2022/07/31 06:08:21;;;;;;;11.25;9.40;;;16.60;99.90;;;;;;2586815;54;20871;31
2022/07/31 06:10:57;;;;;;;15.50;10.00;;;16.60;99.90;;;;;;2597477;46;20886;31
2022/07/31 06:13:31;;;;;;;22.85;8.90;;;16.60;99.90;;;;;;2586534;54;20263;31
2022/07/31 06:16:20;;;;;;;9.98;8.65;;;16.70;99.90;;;;;;2684239;39;21546;31
2022/07/31 06:18:55;;;;;;;10.00;7.70;;;16.70;99.90;;;;;;2604633;46;20039;31
2022/07/31 06:21:30;;;;;;;11.47;8.50;;;16.70;99.90;;;;;;2585584;54;20231;31
2022/07/31 06:24:05;;;;;;;11.20;6.70;;;16.70;99.90;;;;;;2604782;46;20033;31
2022/07/31 06:26:52;;;;;;;8.70;7.38;;;16.80;99.90;;;;;;2586462;54;20946;31
2022/07/31 06:29:26;;;;;;;12.48;7.35;;;16.90;99.90;;;;;;2586318;54;20030;31
2022/07/31 06:32:20;;;;;;;8.18;5.88;;;16.80;99.90;;;;;;2586497;54;20050;31
2022/07/31 06:34:55;;;;;;;9.60;6.50;;;16.80;99.90;;;;;;2586330;54;20641;31
2022/07/31 06:37:34;;;;;;;9.65;6.28;;;16.80;99.90;;;;;;2586557;54;20906;31
2022/07/31 06:40:09;;;;;;;7.15;6.45;;;16.80;99.90;;;;;;2586423;54;20840;31
2022/07/31 06:43:01;;;;;;;7.10;6.00;;;16.80;99.90;;;;;;2586243;54;20916;31
2022/07/31 06:46:03;;;;;;;7.22;6.53;;;16.90;99.90;;;;;;2586016;54;20898;31
2022/07/31 06:48:56;;;;;;;9.27;6.55;;;16.90;99.90;;;;;;2586470;54;20052;31
2022/07/31 06:51:30;;;;;;;7.45;6.20;;;17.00;99.90;;;;;;2586281;54;20142;31
2022/07/31 06:54:08;;;;;;;8.45;6.45;;;17.00;99.90;;;;;;2586175;54;20030;31
2022/07/31 06:56:42;;;;;;;11.15;6.50;;;17.00;99.90;;;;;;2604874;46;20936;31
2022/07/31 06:59:17;;;;;;;7.20;5.78;;;17.10;99.90;;;;;;2585469;54;20140;31
2022/07/31 07:02:10;;;;;;;8.57;6.05;;;17.10;99.90;;;;;;2586339;54;20977;31
2022/07/31 07:04:44;;;;;;;8.90;6.38;;;17.20;99.90;;;;;;2590121;54;20030;31
2022/07/31 07:07:39;;;;;;;6.27;5.67;;;17.30;99.90;;;;;;2586317;54;20023;31
2022/07/31 07:10:18;;;;;;;9.68;6.47;;;17.30;99.90;;;;;;2586334;54;20139;31
2022/07/31 07:13:19;;;;;;;6.97;5.70;;;17.40;99.90;;;;;;2585888;54;20941;31
2022/07/31 07:15:57;;;;;;;4.53;3.63;;;17.50;99.90;;;;;;2585451;54;20863;31
2022/07/31 07:18:33;;;;;;;10.48;4.00;;;17.80;99.90;;;;;;2585494;54;20747;31
2022/07/31 07:21:07;;;;;;;8.50;4.90;;;18.10;99.90;;;;;;2586290;54;20093;31
2022/07/31 07:23:42;;;;;;;10.00;4.90;;;18.30;99.90;;;;;;2586345;54;20827;31
2022/07/31 07:26:30;;;;;;;12.43;5.43;;;18.60;99.90;;;;;;2604885;46;20880;31
2022/07/31 07:29:06;;;;;;;7.00;5.15;;;18.60;99.90;;;;;;2586252;54;20802;31
2022/07/31 07:31:40;;;;;;;6.90;5.00;;;18.80;99.90;;;;;;2585418;54;20053;31
2022/07/31 07:34:14;;;;;;;7.90;5.90;;;18.70;99.90;;;;;;2601113;46;20259;31
2022/07/31 07:36:54;;;;;;;7.63;4.97;;;18.60;99.90;;;;;;2586105;54;20871;31
2022/07/31 07:39:35;;;;;;;8.30;4.60;;;18.50;99.90;;;;;;2586247;54;20056;31
2022/07/31 07:42:12;;;;;;;9.45;5.00;;;18.50;99.90;;;;;;2586356;54;20842;31
2022/07/31 07:44:53;;;;;;;7.00;5.10;;;18.50;99.90;;;;;;2586039;54;20778;31
2022/07/31 07:47:29;;;;;;;4.50;4.10;;;18.40;99.90;;;;;;2586214;54;20903;31
2022/07/31 07:50:25;;;;;;;8.80;4.72;;;18.50;99.90;;;;;;2586276;54;20497;31
2022/07/31 07:53:32;;;;;;;8.95;4.80;;;18.40;99.90;;;;;;2585854;54;20801;31
2022/07/31 07:56:53;;;;;;;10.05;5.30;;;18.40;99.90;;;;;;2586131;54;20050;31
2022/07/31 07:59:39;;;;;;;4.80;4.30;;;18.50;99.90;;;;;;2586396;54;20022;31
2022/07/31 08:02:52;;;;;;;8.48;4.00;;;18.40;99.90;;;;;;2586188;54;20108;31
2022/07/31 08:05:50;;;;;;;6.43;4.20;;;18.50;99.90;;;;;;2586305;54;20029;31
2022/07/31 08:08:24;;;;;;;5.70;4.30;;;18.50;99.90;;;;;;2585111;54;20793;31
2022/07/31 08:11:23;;;;;;;6.20;4.53;;;18.50;99.90;;;;;;2586169;54;20033;31
2022/07/31 08:14:12;;;;;;;6.93;3.97;;;18.50;99.90;;;;;;2586185;54;20837;31
2022/07/31 08:17:16;;;;;;;10.23;4.82;;;18.50;99.90;;;;;;2585643;54;20853;31
2022/07/31 08:19:54;;;;;;;7.60;3.67;;;18.50;99.90;;;;;;2585910;54;20064;31
2022/07/31 08:22:28;;;;;;;4.75;3.10;;;18.60;99.90;;;;;;2585843;54;20877;31
2022/07/31 08:25:05;;;;;;;4.35;3.17;;;18.60;99.90;;;;;;2603960;47;20640;31
2022/07/31 08:28:03;;;;;;;4.43;3.70;;;18.60;99.90;;;;;;2586258;54;20865;31
2022/07/31 08:30:41;;;;;;;6.50;3.40;;;18.70;99.90;;;;;;2604472;47;21050;31
2022/07/31 08:33:24;;;;;;;8.50;3.40;;;18.70;99.90;;;;;;2585905;54;20040;31
2022/07/31 08:36:03;;;;;;;5.30;3.30;;;18.80;99.90;;;;;;2604336;47;20481;31
2022/07/31 08:38:41;;;;;;;5.75;3.38;;;18.90;99.90;;;;;;2586009;54;20112;31
2022/07/31 08:41:40;;;;;;;7.73;2.77;;;18.90;99.90;;;;;;2586034;54;20943;31
2022/07/31 08:44:15;;;;;;;4.35;2.70;;;19.00;99.90;;;;;;2585853;54;20031;31
2022/07/31 08:46:51;;;;;;;7.20;2.72;;;19.00;99.90;;;;;;2586270;54;20898;31
2022/07/31 08:49:29;;;;;;;6.18;2.55;;;19.00;99.90;;;;;;2586550;54;20894;31
2022/07/31 08:52:07;;;;;;;6.60;2.77;;;19.00;99.90;;;;;;2605034;46;20037;31
2022/07/31 08:55:02;;;;;;;3.28;2.42;;;19.00;99.90;;;;;;2586567;54;20057;31
2022/07/31 08:57:37;;;;;;;5.53;2.83;;;19.10;99.90;;;;;;2586757;54;20791;31
2022/07/31 09:00:14;;;;;;;3.90;3.00;;;19.10;99.90;;;;;;2605363;46;20073;31
2022/07/31 09:02:47;;;;;;;4.40;2.50;;;19.30;99.90;;;;;;2605420;46;21096;31
2022/07/31 09:05:41;;;;;;;6.35;2.70;;;19.40;99.90;;;;;;2586556;54;20113;31
2022/07/31 09:08:17;;;;;;;2.80;2.40;;;19.50;99.90;;;;;;2592722;46;20113;31
2022/07/31 09:11:03;;;;;;;13.07;3.15;;;19.60;99.90;;;;;;2585864;54;20258;31
2022/07/31 09:13:54;;;;;;;6.18;2.40;;;19.70;99.90;;;;;;2586751;54;20879;31
2022/07/31 09:16:56;;;;;;;7.30;2.47;;;19.80;99.90;;;;;;2586877;54;20873;31
2022/07/31 09:19:38;;;;;;;2.70;2.15;;;20.00;99.90;;;;;;2586681;54;20026;31
2022/07/31 09:22:41;;;;;;;11.90;2.80;;;20.10;99.90;;;;;;2586498;54;20027;31
2022/07/31 09:25:18;;;;;;;5.97;2.25;;;20.30;99.90;;;;;;2586697;54;20226;31
2022/07/31 09:27:52;;;;;;;4.05;2.45;;;20.50;99.90;;;;;;2755550;31;20434;31
2022/07/31 09:30:24;;;;;;;5.50;2.35;;;20.80;99.90;;;;;;2585945;54;20026;31
2022/07/31 09:33:23;;;;;;;8.00;2.40;;;21.10;99.90;;;;;;2586899;54;20497;31
2022/07/31 09:36:15;;;;;;;5.60;2.40;;;21.40;99.90;;;;;;2586773;54;21099;31
2022/07/31 09:38:58;;;;;;;2.93;2.10;;;21.90;99.90;;;;;;2592159;46;20045;31
2022/07/31 09:41:35;;;;;;;2.85;2.10;;;22.40;99.90;;;;;;2586581;54;20768;31
2022/07/31 09:44:54;;;;;;;3.97;2.20;;;22.90;99.90;;;;;;2586584;54;20795;31
2022/07/31 09:47:28;;;;;;;3.85;2.20;;;23.50;99.90;;;;;;2586564;54;20033;31
2022/07/31 09:50:04;;;;;;;4.30;2.50;;;23.70;99.90;;;;;;2586509;54;20050;31
2022/07/31 09:52:40;;;;;;;8.05;1.85;;;23.70;99.90;;;;;;2605341;46;20975;31
2022/07/31 09:55:16;;;;;;;;;;;23.90;99.90;;;;;;2586596;54;20916;31
2022/07/31 09:57:55;;;;;;;3.43;1.70;;;24.20;99.90;;;;;;2585808;54;19934;31
2022/07/31 10:00:34;;;;;;;5.70;1.80;;;24.60;99.90;;;;;;2586628;54;20903;31
2022/07/31 10:03:08;;;;;;;4.78;1.45;;;24.50;99.90;;;;;;2586566;54;20951;31
2022/07/31 10:05:46;;;;;;;3.83;1.13;;;24.80;99.90;;;;;;2586493;54;20061;31
2022/07/31 10:08:20;;;;;;;6.05;1.60;;;24.90;99.90;;;;;;2586751;54;20887;31
2022/07/31 10:11:20;;;;;;;2.23;1.27;;;24.80;99.90;;;;;;2586136;54;20026;31
2022/07/31 10:14:17;;;;;;;3.63;1.30;;;24.70;99.90;;;;;;2586361;54;20085;31
2022/07/31 10:16:52;;;;;;;4.22;1.40;;;24.70;99.90;;;;;;2586511;54;20053;31
2022/07/31 10:19:49;;;;;;;4.95;1.65;;;24.70;99.90;;;;;;2586533;54;20033;31
2022/07/31 10:22:21;;;;;;;1.80;1.00;;;25.00;99.90;;;;;;2596343;46;20046;31
2022/07/31 10:24:59;;;;;;;5.22;1.17;;;25.20;99.90;;;;;;2586715;54;20027;31
2022/07/31 10:27:39;;;;;;;3.35;1.23;;;25.00;99.90;;;;;;2605317;46;20724;31
2022/07/31 10:30:17;;;;;;;5.60;1.23;;;25.00;99.90;;;;;;2604891;46;20886;31
2022/07/31 10:32:59;;;;;;;4.00;0.90;;;25.30;99.90;;;;;;2586533;54;20042;31
2022/07/31 10:35:40;;;;;;;3.10;1.00;;;25.30;99.90;;;;;;2586547;54;20910;31
2022/07/31 10:38:42;;;;;;;3.40;1.20;;;25.40;99.90;;;;;;2586609;54;20832;31
2022/07/31 10:41:39;;;;;;;4.07;1.23;;;25.30;99.90;;;;;;2586759;54;20794;31
2022/07/31 10:44:21;;;;;;;4.45;1.20;;;25.20;99.90;;;;;;2586559;54;20864;31
2022/07/31 10:47:15;;;;;;;4.10;1.10;;;25.30;99.90;;;;;;2586615;54;20060;31
2022/07/31 10:50:24;;;;;;;2.28;0.75;;;25.10;99.90;;;;;;2586331;54;20084;31
2022/07/31 10:53:15;;;;;;;2.75;1.20;;;25.00;99.90;;;;;;2586711;54;20034;31
2022/07/31 10:56:12;;;;;;;3.53;0.60;;;24.90;99.90;;;;;;2586493;54;20056;31
2022/07/31 10:59:29;;;;;;;3.80;1.15;;;24.90;99.90;;;;;;2586459;54;20890;31
2022/07/31 11:02:33;;;;;;;5.13;1.38;;;25.00;99.90;;;;;;2586518;54;20104;31
2022/07/31 11:05:26;;;;;;;3.80;1.10;;;25.10;99.90;;;;;;2604865;46;20057;31
2022/07/31 11:08:12;;;;;;;4.18;1.48;;;25.10;99.90;;;;;;2586286;54;20030;31
2022/07/31 11:10:59;;;;;;;5.57;1.20;;;25.30;99.90;;;;;;2586223;54;20720;31
2022/07/31 11:13:58;;;;;;;2.33;0.77;;;25.40;99.90;;;;;;2586240;54;20309;31
2022/07/31 11:16:57;;;;;;;3.38;0.85;;;25.50;99.90;;;;;;2586273;54;20471;31
2022/07/31 11:19:49;;;;;;;1.55;0.70;;;25.60;99.90;;;;;;2586623;54;20674;31
2022/07/31 11:25:00;;;;;;;4.10;0.60;;;25.70;99.90;;;;;;2582827;54;20702;31
2022/07/31 11:27:32;;;;;;;2.28;0.88;;;25.60;99.90;;;;;;2603122;46;20052;31
2022/07/31 11:30:06;;;;;;;3.72;0.75;;;25.70;99.90;;;;;;2584060;54;20945;31
2022/07/31 11:32:52;;;;;;;2.75;0.70;;;25.70;99.90;;;;;;2602440;46;22172;31
2022/07/31 11:35:28;;;;;;;4.18;0.73;;;25.80;99.90;;;;;;2589316;39;20267;31
2022/07/31 11:38:03;;;;;;;2.75;0.73;;;25.90;99.90;;;;;;2584740;54;20029;31
2022/07/31 11:40:36;;;;;;;3.70;0.80;;;25.90;99.90;;;;;;2586157;54;20120;31
2022/07/31 11:43:10;;;;;;;2.85;0.75;;;25.90;99.90;;;;;;2585791;54;20049;31
2022/07/31 11:45:59;;;;;;;3.67;0.70;;;25.90;99.90;;;;;;2585890;54;20055;31
2022/07/31 11:48:34;;;;;;;6.55;1.17;;;26.00;99.90;;;;;;2586194;54;20767;31
2022/07/31 11:51:18;;;;;;;3.72;0.73;;;26.20;99.90;;;;;;2585924;54;20038;31
2022/07/31 11:53:51;;;;;;;1.58;0.80;;;26.20;99.90;;;;;;2604478;46;20887;31
2022/07/31 11:56:28;;;;;;;3.50;0.80;;;26.20;99.90;;;;;;2585862;54;20069;31
2022/07/31 11:59:00;;;;;;;3.38;0.88;;;26.20;99.90;;;;;;2585778;54;20865;31
2022/07/31 12:01:32;;;;;;;2.13;0.80;;;26.20;99.90;;;;;;2585567;54;20116;31
2022/07/31 12:04:07;;;;;;;1.98;0.75;;;26.20;99.90;;;;;;2585855;54;20089;31
2022/07/31 12:06:41;;;;;;;4.10;0.80;;;26.20;99.90;;;;;;2701885;39;21707;31
2022/07/31 12:09:15;;;;;;;5.97;0.93;;;26.10;99.90;;;;;;2585782;54;20029;31
2022/07/31 12:12:10;;;;;;;2.10;0.70;;;26.10;99.90;;;;;;2585714;54;20050;31
2022/07/31 12:14:41;;;;;;;3.60;0.70;;;26.00;99.90;;;;;;2585981;54;20925;31
2022/07/31 12:17:21;;;;;;;1.95;0.70;;;26.10;99.90;;;;;;2604266;47;20246;31
2022/07/31 12:19:59;;;;;;;1.38;0.68;;;26.00;99.90;;;;;;2585875;54;20951;31
2022/07/31 12:22:30;;;;;;;5.10;0.93;;;26.00;99.90;;;;;;2604541;47;20046;31
2022/07/31 12:25:08;;;;;;;0.88;0.60;;;26.00;99.90;;;;;;2604762;46;20053;31
2022/07/31 12:27:41;;;;;;;2.03;0.50;;;26.10;99.90;;;;;;2586489;54;20051;31
2022/07/31 12:30:18;;;;;;;1.37;0.70;;;26.00;99.90;;;;;;2586443;54;20834;31
2022/07/31 12:32:50;;;;;;;2.58;0.50;;;26.10;99.90;;;;;;2586598;54;20028;31
2022/07/31 12:35:26;;;;;;;4.80;0.70;;;26.20;99.90;;;;;;2586437;54;20030;31
2022/07/31 12:38:24;;;;;;;2.40;0.50;;;26.30;99.90;;;;;;2586650;54;20043;31
2022/07/31 12:41:15;;;;;;;3.05;0.50;;;26.30;99.90;;;;;;2586346;54;20724;31
2022/07/31 12:43:50;;;;;;;0.95;0.60;;;26.50;99.90;;;;;;2604635;46;20918;31
2022/07/31 12:46:23;;;;;;;1.25;0.57;;;26.60;99.90;;;;;;2586343;54;20888;31
2022/07/31 12:48:55;;;;;;;3.17;0.95;;;26.60;99.90;;;;;;2586463;54;20093;31
2022/07/31 12:51:30;;;;;;;2.88;0.57;;;26.60;99.80;;;;;;2586057;54;20109;31
2022/07/31 12:54:17;;;;;;;2.60;0.70;;;26.60;99.90;;;;;;2604825;46;20027;31
2022/07/31 12:56:49;;;;;;;1.35;0.70;;;26.60;99.70;;;;;;2586428;54;20026;31
2022/07/31 12:59:20;;;;;;;1.80;0.60;;;26.50;99.20;;;;;;2586308;54;20731;31
2022/07/31 13:01:54;;;;;;;2.67;0.70;;;26.60;98.90;;;;;;2586441;54;20906;31
2022/07/31 13:04:26;;;;;;;2.45;0.63;;;26.50;98.10;;;;;;2604949;46;20883;31
2022/07/31 13:07:00;;;;;;;1.20;0.60;;;26.50;98.80;;;;;;2604920;46;20883;31
2022/07/31 13:09:33;;;;;;;3.43;0.73;;;26.40;98.90;;;;;;2586452;54;20031;31
2022/07/31 13:12:05;;;;;;;1.13;0.70;;;26.50;98.70;;;;;;2604568;46;20879;31
2022/07/31 13:14:36;;;;;;;2.40;0.60;;;26.50;98.90;;;;;;2586169;54;20826;31
2022/07/31 13:17:08;;;;;;;2.47;0.70;;;26.50;99.40;;;;;;2585956;54;20149;31
2022/07/31 13:19:40;;;;;;;1.35;0.60;;;26.60;99.10;;;;;;2586043;54;20034;31
2022/07/31 13:22:18;;;;;;;4.57;0.60;;;26.50;98.70;;;;;;2586377;54;20030;31
2022/07/31 13:24:51;;;;;;;1.40;0.70;;;26.50;98.60;;;;;;2604730;46;20085;31
2022/07/31 13:27:23;;;;;;;0.95;0.50;;;26.60;98.10;;;;;;2604590;46;20089;31
2022/07/31 13:29:57;;;;;;;2.15;0.45;;;26.50;98.10;;;;;;2586234;54;20022;31
2022/07/31 13:32:31;;;;;;;1.93;0.90;;;26.50;98.30;;;;;;2586108;54;20027;31
2022/07/31 13:35:03;;;;;;;0.97;0.53;;;26.50;98.10;;;;;;2586120;54;20023;31
2022/07/31 13:37:55;;;;;;;9.25;2.05;;;26.50;98.00;;;;;;2585660;54;20053;31
2022/07/31 13:43:15;;;;;;;4.07;0.70;;;26.40;96.40;;;;;;2586177;54;20046;31
2022/07/31 13:45:49;;;;;;;1.00;0.50;;;26.20;96.10;;;;;;2585854;54;20044;31
2022/07/31 13:48:21;;;;;;;1.88;0.80;;;26.20;98.20;;;;;;2604404;46;20871;31
2022/07/31 13:50:53;;;;;;;2.05;0.75;;;26.10;97.20;;;;;;2586172;54;21104;31
2022/07/31 13:53:25;;;;;;;2.92;0.80;;;26.10;97.40;;;;;;2586184;54;20057;31
2022/07/31 13:55:59;;;;;;;4.87;0.70;;;26.00;97.70;;;;;;2604881;46;20053;31
2022/07/31 13:58:31;;;;;;;1.02;0.57;;;26.10;97.70;;;;;;2586150;54;20060;31
2022/07/31 14:01:03;;;;;;;3.13;0.63;;;26.10;97.70;;;;;;2586183;54;20033;31
2022/07/31 14:03:38;;;;;;;1.67;0.70;;;26.10;97.50;;;;;;2604706;46;20745;31
2022/07/31 14:06:10;;;;;;;0.65;0.40;;;26.10;96.60;;;;;;2586172;54;20852;31
2022/07/31 14:08:45;;;;;;;1.95;0.63;;;26.10;97.70;;;;;;2591080;46;20486;31
2022/07/31 14:11:23;;;;;;;3.70;0.65;;;26.10;97.10;;;;;;2586055;54;20900;31